sensor_id;sensor_type;location;lat;lon;timestamp;pressure;altitude;pressure_sealevel;temperature;humidity
74329;BME280;62749;51.982;5.916;2024-02-28T00:00:51;78471.03;;;-147.22;84.59
74329;BME280;62749;51.982;5.916;2024-02-28T00:03:20;78485.13;;;-147.22;84.66
74329;BME280;62749;51.982;5.916;2024-02-28T00:05:50;78499.25;;;-147.22;84.83
74329;BME280;62749;51.982;5.916;2024-02-28T00:08:19;78501.28;;;-147.22;85.23
74329;BME280;62749;51.982;5.916;2024-02-28T00:10:51;78497.25;;;-147.22;85.78
74329;BME280;62749;51.982;5.916;2024-02-28T00:13:45;78479.09;;;-147.22;85.72
74329;BME280;62749;51.982;5.916;2024-02-28T00:16:14;78485.13;;;-147.22;85.36
74329;BME280;62749;51.982;5.916;2024-02-28T00:18:44;78489.19;;;-147.22;85.30
74329;BME280;62749;51.982;5.916;2024-02-28T00:21:13;78489.19;;;-147.22;85.27
74329;BME280;62749;51.982;5.916;2024-02-28T00:23:43;78513.38;;;-147.22;85.17
74329;BME280;62749;51.982;5.916;2024-02-28T00:26:15;78515.41;;;-147.22;85.11
74329;BME280;62749;51.982;5.916;2024-02-28T00:28:44;78519.44;;;-147.22;85.47
74329;BME280;62749;51.982;5.916;2024-02-28T00:31:14;78509.34;;;-147.22;85.66
74329;BME280;62749;51.982;5.916;2024-02-28T00:33:43;78497.25;;;-147.22;85.46
74329;BME280;62749;51.982;5.916;2024-02-28T00:36:13;78483.13;;;-147.22;84.78
74329;BME280;62749;51.982;5.916;2024-02-28T00:38:43;78479.09;;;-147.22;84.74
74329;BME280;62749;51.982;5.916;2024-02-28T00:44:28;78473.03;;;-147.22;84.58
74329;BME280;62749;51.982;5.916;2024-02-28T00:46:57;78471.03;;;-147.22;84.10
74329;BME280;62749;51.982;5.916;2024-02-28T00:49:27;78473.03;;;-147.22;84.38
74329;BME280;62749;51.982;5.916;2024-02-28T00:51:56;78471.03;;;-147.22;84.34
74329;BME280;62749;51.982;5.916;2024-02-28T00:54:26;78464.97;;;-147.22;84.36
74329;BME280;62749;51.982;5.916;2024-02-28T00:56:55;78469.00;;;-147.22;84.44
74329;BME280;62749;51.982;5.916;2024-02-28T00:59:28;78458.94;;;-147.22;84.40
74329;BME280;62749;51.982;5.916;2024-02-28T01:01:58;78454.88;;;-147.22;84.23
74329;BME280;62749;51.982;5.916;2024-02-28T01:04:27;78456.91;;;-147.22;84.55
74329;BME280;62749;51.982;5.916;2024-02-28T01:06:57;78456.91;;;-147.22;84.66
74329;BME280;62749;51.982;5.916;2024-02-28T01:09:26;78450.84;;;-147.22;84.61
74329;BME280;62749;51.982;5.916;2024-02-28T01:11:56;78440.78;;;-147.22;84.20
74329;BME280;62749;51.982;5.916;2024-02-28T01:14:28;78438.75;;;-147.22;84.21
74329;BME280;62749;51.982;5.916;2024-02-28T01:16:58;78436.75;;;-147.22;84.42
74329;BME280;62749;51.982;5.916;2024-02-28T01:19:27;78436.75;;;-147.22;84.08
74329;BME280;62749;51.982;5.916;2024-02-28T01:21:58;78438.75;;;-147.22;84.09
74329;BME280;62749;51.982;5.916;2024-02-28T01:24:27;78436.75;;;-147.22;84.17
74329;BME280;62749;51.982;5.916;2024-02-28T01:26:57;78448.84;;;-147.22;84.19
74329;BME280;62749;51.982;5.916;2024-02-28T01:29:29;78440.78;;;-147.22;84.49
74329;BME280;62749;51.982;5.916;2024-02-28T01:32:17;78438.75;;;-147.22;84.29
74329;BME280;62749;51.982;5.916;2024-02-28T01:34:46;78420.59;;;-147.22;84.03
74329;BME280;62749;51.982;5.916;2024-02-28T01:37:15;78424.63;;;-147.22;83.73
74329;BME280;62749;51.982;5.916;2024-02-28T01:39:45;78428.66;;;-147.22;83.52
74329;BME280;62749;51.982;5.916;2024-02-28T01:42:14;78436.75;;;-147.22;83.76
74329;BME280;62749;51.982;5.916;2024-02-28T01:44:47;78432.72;;;-147.22;83.69
74329;BME280;62749;51.982;5.916;2024-02-28T01:47:18;78424.63;;;-147.22;83.59
74329;BME280;62749;51.982;5.916;2024-02-28T01:49:48;78426.66;;;-147.22;83.09
74329;BME280;62749;51.982;5.916;2024-02-28T01:52:21;78428.66;;;-147.22;83.43
74329;BME280;62749;51.982;5.916;2024-02-28T01:54:51;78424.63;;;-147.22;83.77
74329;BME280;62749;51.982;5.916;2024-02-28T01:57:21;78420.59;;;-147.22;83.39
74329;BME280;62749;51.982;5.916;2024-02-28T01:59:53;78442.78;;;-147.22;83.44
74329;BME280;62749;51.982;5.916;2024-02-28T02:02:25;78440.78;;;-147.22;84.06
74329;BME280;62749;51.982;5.916;2024-02-28T02:04:55;78450.84;;;-147.22;83.97
74329;BME280;62749;51.982;5.916;2024-02-28T02:07:25;78460.94;;;-147.22;84.44
74329;BME280;62749;51.982;5.916;2024-02-28T02:09:54;78452.88;;;-147.22;84.24
74329;BME280;62749;51.982;5.916;2024-02-28T02:12:24;78464.97;;;-147.22;84.29
74329;BME280;62749;51.982;5.916;2024-02-28T02:14:56;78481.09;;;-147.22;84.67
74329;BME280;62749;51.982;5.916;2024-02-28T02:17:25;78464.97;;;-147.22;84.79
74329;BME280;62749;51.982;5.916;2024-02-28T02:19:55;78485.13;;;-147.22;84.72
74329;BME280;62749;51.982;5.916;2024-02-28T02:22:27;78481.09;;;-147.22;85.43
74329;BME280;62749;51.982;5.916;2024-02-28T02:25:02;78477.06;;;-147.22;85.69
74329;BME280;62749;51.982;5.916;2024-02-28T02:27:32;78479.09;;;-147.22;85.62
74329;BME280;62749;51.982;5.916;2024-02-28T02:30:01;78483.13;;;-147.22;85.76
74329;BME280;62749;51.982;5.916;2024-02-28T02:32:30;78485.13;;;-147.22;85.60
74329;BME280;62749;51.982;5.916;2024-02-28T02:35:00;78487.16;;;-147.22;86.01
74329;BME280;62749;51.982;5.916;2024-02-28T02:37:29;78491.19;;;-147.22;86.10
74329;BME280;62749;51.982;5.916;2024-02-28T02:40:03;78477.06;;;-147.22;86.49
74329;BME280;62749;51.982;5.916;2024-02-28T02:42:47;78473.03;;;-147.22;86.08
74329;BME280;62749;51.982;5.916;2024-02-28T02:45:17;78475.06;;;-147.22;86.10
74329;BME280;62749;51.982;5.916;2024-02-28T02:47:46;78473.03;;;-147.22;86.10
74329;BME280;62749;51.982;5.916;2024-02-28T02:50:16;78469.00;;;-147.22;86.06
74329;BME280;62749;51.982;5.916;2024-02-28T02:52:45;78479.09;;;-147.22;85.57
74329;BME280;62749;51.982;5.916;2024-02-28T02:55:17;78487.16;;;-147.22;85.14
74329;BME280;62749;51.982;5.916;2024-02-28T02:57:47;78513.38;;;-147.22;85.72
74329;BME280;62749;51.982;5.916;2024-02-28T03:00:17;78517.41;;;-147.22;85.97
74329;BME280;62749;51.982;5.916;2024-02-28T03:02:46;78523.47;;;-147.22;86.10
74329;BME280;62749;51.982;5.916;2024-02-28T03:05:16;78511.34;;;-147.22;86.52
74329;BME280;62749;51.982;5.916;2024-02-28T03:07:45;78511.34;;;-147.22;86.70
74329;BME280;62749;51.982;5.916;2024-02-28T03:10:17;78505.31;;;-147.22;86.65
74329;BME280;62749;51.982;5.916;2024-02-28T03:12:46;78523.47;;;-147.22;86.44
74329;BME280;62749;51.982;5.916;2024-02-28T03:15:16;78503.28;;;-147.22;86.51
74329;BME280;62749;51.982;5.916;2024-02-28T03:17:45;78529.50;;;-147.22;85.79
74329;BME280;62749;51.982;5.916;2024-02-28T03:20:15;78513.38;;;-147.22;86.79
74329;BME280;62749;51.982;5.916;2024-02-28T03:22:44;78499.25;;;-147.22;86.55
74329;BME280;62749;51.982;5.916;2024-02-28T03:25:17;78511.34;;;-147.22;86.00
74329;BME280;62749;51.982;5.916;2024-02-28T03:27:46;78511.34;;;-147.22;86.10
74329;BME280;62749;51.982;5.916;2024-02-28T03:30:44;78515.41;;;-147.22;86.06
74329;BME280;62749;51.982;5.916;2024-02-28T03:33:13;78525.47;;;-147.22;86.01
74329;BME280;62749;51.982;5.916;2024-02-28T03:35:43;78531.53;;;-147.22;86.12
74329;BME280;62749;51.982;5.916;2024-02-28T03:38:12;78515.41;;;-147.22;86.33
74329;BME280;62749;51.982;5.916;2024-02-28T03:40:44;78521.44;;;-147.22;86.01
74329;BME280;62749;51.982;5.916;2024-02-28T03:43:13;78519.44;;;-147.22;85.72
74329;BME280;62749;51.982;5.916;2024-02-28T03:45:43;78521.44;;;-147.22;85.92
74329;BME280;62749;51.982;5.916;2024-02-28T03:48:12;78519.44;;;-147.22;85.30
74329;BME280;62749;51.982;5.916;2024-02-28T03:50:42;78517.41;;;-147.22;85.56
74329;BME280;62749;51.982;5.916;2024-02-28T03:53:11;78513.38;;;-147.22;85.58
74329;BME280;62749;51.982;5.916;2024-02-28T03:55:41;78529.50;;;-147.22;85.57
74329;BME280;62749;51.982;5.916;2024-02-28T03:58:13;78521.44;;;-147.22;85.79
74329;BME280;62749;51.982;5.916;2024-02-28T04:00:42;78531.53;;;-147.22;86.26
74329;BME280;62749;51.982;5.916;2024-02-28T04:03:13;78529.50;;;-147.22;85.91
74329;BME280;62749;51.982;5.916;2024-02-28T04:05:43;78525.47;;;-147.22;86.19
74329;BME280;62749;51.982;5.916;2024-02-28T04:08:16;78521.44;;;-147.22;86.04
74329;BME280;62749;51.982;5.916;2024-02-28T04:10:43;78527.50;;;-147.22;85.68
74329;BME280;62749;51.982;5.916;2024-02-28T04:13:15;78533.53;;;-147.22;85.65
74329;BME280;62749;51.982;5.916;2024-02-28T04:15:45;78545.66;;;-147.22;85.77
74329;BME280;62749;51.982;5.916;2024-02-28T04:18:14;78541.63;;;-147.22;86.14
74329;BME280;62749;51.982;5.916;2024-02-28T04:20:44;78541.63;;;-147.22;85.76
74329;BME280;62749;51.982;5.916;2024-02-28T04:23:13;78547.66;;;-147.22;85.66
74329;BME280;62749;51.982;5.916;2024-02-28T04:25:43;78551.69;;;-147.22;85.57
74329;BME280;62749;51.982;5.916;2024-02-28T04:28:15;78553.72;;;-147.22;85.69
74329;BME280;62749;51.982;5.916;2024-02-28T04:30:44;78545.66;;;-147.22;85.69
74329;BME280;62749;51.982;5.916;2024-02-28T04:33:14;78549.69;;;-147.22;85.56
74329;BME280;62749;51.982;5.916;2024-02-28T04:35:43;78551.69;;;-147.22;85.78
74329;BME280;62749;51.982;5.916;2024-02-28T04:38:13;78549.69;;;-147.22;85.73
74329;BME280;62749;51.982;5.916;2024-02-28T04:40:43;78557.75;;;-147.22;86.00
74329;BME280;62749;51.982;5.916;2024-02-28T04:43:15;78559.75;;;-147.22;85.94
74329;BME280;62749;51.982;5.916;2024-02-28T04:45:44;78555.72;;;-147.22;86.08
74329;BME280;62749;51.982;5.916;2024-02-28T04:48:14;78565.81;;;-147.22;85.99
74329;BME280;62749;51.982;5.916;2024-02-28T04:50:43;78565.81;;;-147.22;86.09
74329;BME280;62749;51.982;5.916;2024-02-28T04:53:13;78555.72;;;-147.22;86.06
74329;BME280;62749;51.982;5.916;2024-02-28T04:55:42;78565.81;;;-147.22;86.13
74329;BME280;62749;51.982;5.916;2024-02-28T04:58:31;78567.84;;;-147.22;86.08
74329;BME280;62749;51.982;5.916;2024-02-28T05:01:00;78577.91;;;-147.22;86.01
74329;BME280;62749;51.982;5.916;2024-02-28T05:03:30;78598.09;;;-147.22;86.41
74329;BME280;62749;51.982;5.916;2024-02-28T05:05:59;78592.03;;;-147.22;86.90
74329;BME280;62749;51.982;5.916;2024-02-28T05:08:29;78581.94;;;-147.22;86.80
74329;BME280;62749;51.982;5.916;2024-02-28T05:10:59;78592.03;;;-147.22;86.55
74329;BME280;62749;51.982;5.916;2024-02-28T05:13:31;78581.94;;;-147.22;86.73
74329;BME280;62749;51.982;5.916;2024-02-28T05:16:00;78598.09;;;-147.22;86.34
74329;BME280;62749;51.982;5.916;2024-02-28T05:18:30;78598.09;;;-147.22;86.25
74329;BME280;62749;51.982;5.916;2024-02-28T05:21:00;78600.09;;;-147.22;86.45
74329;BME280;62749;51.982;5.916;2024-02-28T05:23:30;78592.03;;;-147.22;86.21
74329;BME280;62749;51.982;5.916;2024-02-28T05:25:59;78585.97;;;-147.22;86.14
74329;BME280;62749;51.982;5.916;2024-02-28T05:28:33;78590.00;;;-147.22;86.17
74329;BME280;62749;51.982;5.916;2024-02-28T05:31:20;78581.94;;;-147.22;85.62
74329;BME280;62749;51.982;5.916;2024-02-28T05:33:50;78579.94;;;-147.22;85.74
74329;BME280;62749;51.982;5.916;2024-02-28T05:36:21;78585.97;;;-147.22;85.65
74329;BME280;62749;51.982;5.916;2024-02-28T05:38:52;78590.00;;;-147.22;85.50
74329;BME280;62749;51.982;5.916;2024-02-28T05:41:22;78594.06;;;-147.22;85.52
74329;BME280;62749;51.982;5.916;2024-02-28T05:43:54;78594.06;;;-147.22;85.33
74329;BME280;62749;51.982;5.916;2024-02-28T05:46:23;78585.97;;;-147.22;85.24
74329;BME280;62749;51.982;5.916;2024-02-28T05:48:53;78588.00;;;-147.22;85.35
74329;BME280;62749;51.982;5.916;2024-02-28T05:51:22;78585.97;;;-147.22;85.47
74329;BME280;62749;51.982;5.916;2024-02-28T05:53:52;78585.97;;;-147.22;85.55
74329;BME280;62749;51.982;5.916;2024-02-28T05:56:21;78590.00;;;-147.22;85.28
74329;BME280;62749;51.982;5.916;2024-02-28T05:58:50;78590.00;;;-147.22;85.39
74329;BME280;62749;51.982;5.916;2024-02-28T06:01:22;78608.16;;;-147.22;85.20
74329;BME280;62749;51.982;5.916;2024-02-28T06:03:52;78602.13;;;-147.22;85.46
74329;BME280;62749;51.982;5.916;2024-02-28T06:06:21;78606.16;;;-147.22;85.28
74329;BME280;62749;51.982;5.916;2024-02-28T06:08:52;78602.13;;;-147.22;84.90
74329;BME280;62749;51.982;5.916;2024-02-28T06:11:22;78606.16;;;-147.22;84.73
74329;BME280;62749;51.982;5.916;2024-02-28T06:13:52;78614.22;;;-147.22;84.42
74329;BME280;62749;51.982;5.916;2024-02-28T06:16:24;78614.22;;;-147.22;84.85
74329;BME280;62749;51.982;5.916;2024-02-28T06:18:54;78634.38;;;-147.22;84.44
74329;BME280;62749;51.982;5.916;2024-02-28T06:21:23;78648.50;;;-147.22;84.25
74329;BME280;62749;51.982;5.916;2024-02-28T06:23:52;78678.75;;;-147.22;84.47
74329;BME280;62749;51.982;5.916;2024-02-28T06:26:22;78678.75;;;-147.22;85.15
74329;BME280;62749;51.982;5.916;2024-02-28T06:28:52;78668.69;;;-147.22;85.15
74329;BME280;62749;51.982;5.916;2024-02-28T06:31:30;78684.81;;;-147.22;84.87
74329;BME280;62749;51.982;5.916;2024-02-28T06:33:59;78702.97;;;-147.22;84.91
74329;BME280;62749;51.982;5.916;2024-02-28T06:36:29;78704.97;;;-147.22;85.41
74329;BME280;62749;51.982;5.916;2024-02-28T06:38:58;78700.94;;;-147.22;85.17
74329;BME280;62749;51.982;5.916;2024-02-28T06:41:27;78702.97;;;-147.22;85.08
74329;BME280;62749;51.982;5.916;2024-02-28T06:43:57;78684.81;;;-147.22;85.28
74329;BME280;62749;51.982;5.916;2024-02-28T06:46:26;78680.78;;;-147.22;84.75
74329;BME280;62749;51.982;5.916;2024-02-28T06:48:58;78678.75;;;-147.22;85.22
74329;BME280;62749;51.982;5.916;2024-02-28T06:51:28;78664.63;;;-147.22;85.04
74329;BME280;62749;51.982;5.916;2024-02-28T06:53:57;78656.56;;;-147.22;84.70
74329;BME280;62749;51.982;5.916;2024-02-28T06:56:27;78656.56;;;-147.22;84.61
74329;BME280;62749;51.982;5.916;2024-02-28T07:01:58;78668.69;;;-147.22;84.69
74329;BME280;62749;51.982;5.916;2024-02-28T07:04:30;78666.66;;;-147.22;84.66
74329;BME280;62749;51.982;5.916;2024-02-28T07:06:59;78650.53;;;-147.22;84.68
74329;BME280;62749;51.982;5.916;2024-02-28T07:09:26;78646.50;;;-147.22;84.39
74329;BME280;62749;51.982;5.916;2024-02-28T07:11:57;78640.44;;;-147.22;84.31
74329;BME280;62749;51.982;5.916;2024-02-28T07:14:27;78638.41;;;-147.22;84.01
74329;BME280;62749;51.982;5.916;2024-02-28T07:16:56;78650.53;;;-147.22;83.84
74329;BME280;62749;51.982;5.916;2024-02-28T07:19:41;78658.59;;;-147.22;83.79
74329;BME280;62749;51.982;5.916;2024-02-28T07:22:10;78658.59;;;-147.22;83.75
74329;BME280;62749;51.982;5.916;2024-02-28T07:24:40;78654.56;;;-147.22;83.77
74329;BME280;62749;51.982;5.916;2024-02-28T07:27:09;78650.53;;;-147.22;84.05
74329;BME280;62749;51.982;5.916;2024-02-28T07:29:58;78658.59;;;-147.22;84.03
74329;BME280;62749;51.982;5.916;2024-02-28T07:32:29;78652.53;;;-147.22;84.46
74329;BME280;62749;51.982;5.916;2024-02-28T07:35:04;78650.53;;;-147.22;84.16
74329;BME280;62749;51.982;5.916;2024-02-28T07:37:34;78650.53;;;-147.22;84.04
74329;BME280;62749;51.982;5.916;2024-02-28T07:40:05;78650.53;;;-147.22;83.39
74329;BME280;62749;51.982;5.916;2024-02-28T07:42:35;78658.59;;;-147.22;83.60
74329;BME280;62749;51.982;5.916;2024-02-28T07:45:05;78656.56;;;-147.22;83.26
74329;BME280;62749;51.982;5.916;2024-02-28T07:47:35;78646.50;;;-147.22;83.43
74329;BME280;62749;51.982;5.916;2024-02-28T07:50:07;78636.41;;;-147.22;82.83
74329;BME280;62749;51.982;5.916;2024-02-28T07:52:37;78634.38;;;-147.22;82.66
74329;BME280;62749;51.982;5.916;2024-02-28T07:55:07;78630.34;;;-147.22;82.59
74329;BME280;62749;51.982;5.916;2024-02-28T07:57:36;78616.25;;;-147.22;82.30
74329;BME280;62749;51.982;5.916;2024-02-28T08:00:07;78608.16;;;-147.22;82.16
74329;BME280;62749;51.982;5.916;2024-02-28T08:02:37;78594.06;;;-147.22;81.79
74329;BME280;62749;51.982;5.916;2024-02-28T08:05:09;78592.03;;;-147.22;81.35
74329;BME280;62749;51.982;5.916;2024-02-28T08:07:39;78594.06;;;-147.22;80.79
74329;BME280;62749;51.982;5.916;2024-02-28T08:10:09;78592.03;;;-147.22;81.28
74329;BME280;62749;51.982;5.916;2024-02-28T08:12:40;78596.06;;;-147.22;81.31
74329;BME280;62749;51.982;5.916;2024-02-28T08:15:10;78588.00;;;-147.22;82.06
74329;BME280;62749;51.982;5.916;2024-02-28T08:17:40;78588.00;;;-147.22;82.17
74329;BME280;62749;51.982;5.916;2024-02-28T08:20:12;78581.94;;;-147.22;81.58
74329;BME280;62749;51.982;5.916;2024-02-28T08:22:42;78585.97;;;-147.22;81.87
74329;BME280;62749;51.982;5.916;2024-02-28T08:25:13;78573.88;;;-147.22;82.13
74329;BME280;62749;51.982;5.916;2024-02-28T08:27:42;78567.84;;;-147.22;81.69
74329;BME280;62749;51.982;5.916;2024-02-28T08:30:20;78559.75;;;-147.22;81.82
74329;BME280;62749;51.982;5.916;2024-02-28T08:32:49;78557.75;;;-147.22;81.73
74329;BME280;62749;51.982;5.916;2024-02-28T08:35:21;78541.63;;;-147.22;81.67
74329;BME280;62749;51.982;5.916;2024-02-28T08:37:51;78541.63;;;-147.22;80.86
74329;BME280;62749;51.982;5.916;2024-02-28T08:40:20;78539.59;;;-147.22;80.59
74329;BME280;62749;51.982;5.916;2024-02-28T08:42:50;78541.63;;;-147.22;81.11
74329;BME280;62749;51.982;5.916;2024-02-28T08:45:21;78529.50;;;-147.22;81.00
74329;BME280;62749;51.982;5.916;2024-02-28T08:47:51;78541.63;;;-147.22;81.35
74329;BME280;62749;51.982;5.916;2024-02-28T08:50:23;78543.63;;;-147.22;81.21
74329;BME280;62749;51.982;5.916;2024-02-28T08:52:52;78539.59;;;-147.22;81.77
74329;BME280;62749;51.982;5.916;2024-02-28T08:55:22;78525.47;;;-147.22;81.70
74329;BME280;62749;51.982;5.916;2024-02-28T08:57:51;78513.38;;;-147.22;81.21
74329;BME280;62749;51.982;5.916;2024-02-28T09:00:21;78517.41;;;-147.22;80.29
74329;BME280;62749;51.982;5.916;2024-02-28T09:02:50;78513.38;;;-147.22;80.89
74329;BME280;62749;51.982;5.916;2024-02-28T09:05:22;78515.41;;;-147.22;81.58
74329;BME280;62749;51.982;5.916;2024-02-28T09:08:08;78505.31;;;-147.22;81.83
74329;BME280;62749;51.982;5.916;2024-02-28T09:10:37;78521.44;;;-147.22;82.28
74329;BME280;62749;51.982;5.916;2024-02-28T09:13:07;78501.28;;;-147.22;81.91
74329;BME280;62749;51.982;5.916;2024-02-28T09:15:36;78477.06;;;-147.22;81.52
74329;BME280;62749;51.982;5.916;2024-02-28T09:18:07;78479.09;;;-147.22;81.23
74329;BME280;62749;51.982;5.916;2024-02-28T09:20:39;78479.09;;;-147.22;81.14
74329;BME280;62749;51.982;5.916;2024-02-28T09:23:08;78489.19;;;-147.22;81.58
74329;BME280;62749;51.982;5.916;2024-02-28T09:25:38;78479.09;;;-147.22;81.43
74329;BME280;62749;51.982;5.916;2024-02-28T09:28:07;78483.13;;;-147.22;81.87
74329;BME280;62749;51.982;5.916;2024-02-28T09:30:39;78473.03;;;-147.22;82.64
74329;BME280;62749;51.982;5.916;2024-02-28T09:33:08;78460.94;;;-147.22;82.04
74329;BME280;62749;51.982;5.916;2024-02-28T09:35:41;78460.94;;;-147.22;82.16
74329;BME280;62749;51.982;5.916;2024-02-28T09:38:11;78475.06;;;-147.22;82.00
74329;BME280;62749;51.982;5.916;2024-02-28T09:40:41;78473.03;;;-147.22;82.20
74329;BME280;62749;51.982;5.916;2024-02-28T09:43:15;78460.94;;;-147.22;82.56
74329;BME280;62749;51.982;5.916;2024-02-28T09:46:16;78454.88;;;-147.22;82.46
74329;BME280;62749;51.982;5.916;2024-02-28T09:48:47;78456.91;;;-147.22;81.92
74329;BME280;62749;51.982;5.916;2024-02-28T09:51:28;78452.88;;;-147.22;81.73
74329;BME280;62749;51.982;5.916;2024-02-28T09:53:57;78454.88;;;-147.22;81.86
74329;BME280;62749;51.982;5.916;2024-02-28T09:56:27;78448.84;;;-147.22;81.35
74329;BME280;62749;51.982;5.916;2024-02-28T09:58:57;78438.75;;;-147.22;81.65
74329;BME280;62749;51.982;5.916;2024-02-28T10:04:40;78430.69;;;-147.22;82.06
74329;BME280;62749;51.982;5.916;2024-02-28T10:07:13;78418.59;;;-147.22;82.02
74329;BME280;62749;51.982;5.916;2024-02-28T10:09:42;78410.53;;;-147.22;81.48
74329;BME280;62749;51.982;5.916;2024-02-28T10:12:13;78416.56;;;-147.22;81.31
74329;BME280;62749;51.982;5.916;2024-02-28T10:14:43;78406.50;;;-147.22;81.37
74329;BME280;62749;51.982;5.916;2024-02-28T10:17:12;78398.41;;;-147.22;81.35
74329;BME280;62749;51.982;5.916;2024-02-28T10:19:42;78384.31;;;-147.22;81.60
74329;BME280;62749;51.982;5.916;2024-02-28T10:22:14;78374.22;;;-147.22;80.00
74329;BME280;62749;51.982;5.916;2024-02-28T10:24:43;78368.16;;;-147.22;80.53
74329;BME280;62749;51.982;5.916;2024-02-28T10:27:16;78366.16;;;-147.22;80.63
74329;BME280;62749;51.982;5.916;2024-02-28T10:29:47;78364.13;;;-147.22;79.87
74329;BME280;62749;51.982;5.916;2024-02-28T10:32:16;78356.06;;;-147.22;80.35
74329;BME280;62749;51.982;5.916;2024-02-28T10:34:46;78333.88;;;-147.22;80.37
74329;BME280;62749;51.982;5.916;2024-02-28T10:37:20;78327.84;;;-147.22;79.00
74329;BME280;62749;51.982;5.916;2024-02-28T10:39:52;78319.75;;;-147.22;79.59
74329;BME280;62749;51.982;5.916;2024-02-28T10:42:25;78325.81;;;-147.22;79.70
74329;BME280;62749;51.982;5.916;2024-02-28T10:44:57;78327.84;;;-147.22;80.19
74329;BME280;62749;51.982;5.916;2024-02-28T10:47:27;78325.81;;;-147.22;79.92
74329;BME280;62749;51.982;5.916;2024-02-28T10:49:57;78305.66;;;-147.22;79.87
74329;BME280;62749;51.982;5.916;2024-02-28T10:52:33;78295.56;;;-147.22;79.46
74329;BME280;62749;51.982;5.916;2024-02-28T10:55:05;78309.69;;;-147.22;79.46
74329;BME280;62749;51.982;5.916;2024-02-28T10:57:39;78311.69;;;-147.22;79.47
74329;BME280;62749;51.982;5.916;2024-02-28T11:00:11;78311.69;;;-147.22;79.26
74329;BME280;62749;51.982;5.916;2024-02-28T11:02:43;78315.72;;;-147.22;79.85
74329;BME280;62749;51.982;5.916;2024-02-28T11:05:12;78307.66;;;-147.22;79.27
74329;BME280;62749;51.982;5.916;2024-02-28T11:07:45;78291.53;;;-147.22;79.61
74329;BME280;62749;51.982;5.916;2024-02-28T11:10:15;78287.50;;;-147.22;79.07
74329;BME280;62749;51.982;5.916;2024-02-28T11:12:54;78285.47;;;-147.22;79.66
74329;BME280;62749;51.982;5.916;2024-02-28T11:15:51;78285.47;;;-147.22;79.42
74329;BME280;62749;51.982;5.916;2024-02-28T11:18:21;78275.41;;;-147.22;79.98
74329;BME280;62749;51.982;5.916;2024-02-28T11:20:51;78269.34;;;-147.22;80.31
74329;BME280;62749;51.982;5.916;2024-02-28T11:23:23;78257.25;;;-147.22;80.26
74329;BME280;62749;51.982;5.916;2024-02-28T11:25:53;78241.13;;;-147.22;80.47
74329;BME280;62749;51.982;5.916;2024-02-28T11:28:22;78231.03;;;-147.22;80.03
74329;BME280;62749;51.982;5.916;2024-02-28T11:30:52;78218.94;;;-147.22;80.30
74329;BME280;62749;51.982;5.916;2024-02-28T11:33:21;78204.81;;;-147.22;79.40
74329;BME280;62749;51.982;5.916;2024-02-28T11:35:55;78210.88;;;-147.22;79.03
74329;BME280;62749;51.982;5.916;2024-02-28T11:38:27;78214.91;;;-147.22;79.46
74329;BME280;62749;51.982;5.916;2024-02-28T11:40:56;78204.81;;;-147.22;79.61
74329;BME280;62749;51.982;5.916;2024-02-28T11:43:26;78180.63;;;-147.22;79.38
74329;BME280;62749;51.982;5.916;2024-02-28T11:45:55;78170.53;;;-147.22;79.29
74329;BME280;62749;51.982;5.916;2024-02-28T11:51:36;78178.59;;;-147.22;79.55
74329;BME280;62749;51.982;5.916;2024-02-28T11:54:10;78176.59;;;-147.22;79.23
74329;BME280;62749;51.982;5.916;2024-02-28T11:56:41;78166.50;;;-147.22;79.48
74329;BME280;62749;51.982;5.916;2024-02-28T11:59:11;78150.38;;;-147.22;79.17
74329;BME280;62749;51.982;5.916;2024-02-28T12:01:42;78138.28;;;-147.22;79.25
74329;BME280;62749;51.982;5.916;2024-02-28T12:04:13;78128.19;;;-147.22;79.59
74329;BME280;62749;51.982;5.916;2024-02-28T12:06:43;78122.13;;;-147.22;79.32
74329;BME280;62749;51.982;5.916;2024-02-28T12:09:15;78118.09;;;-147.22;79.10
74329;BME280;62749;51.982;5.916;2024-02-28T12:11:51;78118.09;;;-147.22;79.73
74329;BME280;62749;51.982;5.916;2024-02-28T12:14:21;78095.91;;;-147.22;79.66
74329;BME280;62749;51.982;5.916;2024-02-28T12:16:50;78093.91;;;-147.22;79.50
74329;BME280;62749;51.982;5.916;2024-02-28T12:19:20;78085.84;;;-147.22;80.02
74329;BME280;62749;51.982;5.916;2024-02-28T12:21:49;78075.75;;;-147.22;79.64
74329;BME280;62749;51.982;5.916;2024-02-28T12:24:21;78065.66;;;-147.22;79.48
74329;BME280;62749;51.982;5.916;2024-02-28T12:26:51;78053.56;;;-147.22;79.43
74329;BME280;62749;51.982;5.916;2024-02-28T12:29:20;78037.44;;;-147.22;79.36
74329;BME280;62749;51.982;5.916;2024-02-28T12:31:49;78029.38;;;-147.22;78.59
74329;BME280;62749;51.982;5.916;2024-02-28T12:34:19;78023.31;;;-147.22;78.76
74329;BME280;62749;51.982;5.916;2024-02-28T12:36:48;78021.31;;;-147.22;78.99
74329;BME280;62749;51.982;5.916;2024-02-28T12:39:20;78019.28;;;-147.22;78.75
74329;BME280;62749;51.982;5.916;2024-02-28T12:41:51;77995.09;;;-147.22;78.65
74329;BME280;62749;51.982;5.916;2024-02-28T12:44:20;77980.97;;;-147.22;78.26
74329;BME280;62749;51.982;5.916;2024-02-28T12:50:02;77966.84;;;-147.22;78.04
74329;BME280;62749;51.982;5.916;2024-02-28T12:52:33;77952.75;;;-147.22;78.54
74329;BME280;62749;51.982;5.916;2024-02-28T12:55:06;77940.66;;;-147.22;77.66
74329;BME280;62749;51.982;5.916;2024-02-28T12:57:36;77930.56;;;-147.22;77.04
74329;BME280;62749;51.982;5.916;2024-02-28T13:00:07;77928.53;;;-147.22;76.90
74329;BME280;62749;51.982;5.916;2024-02-28T13:02:37;77912.41;;;-147.22;75.99
74329;BME280;62749;51.982;5.916;2024-02-28T13:05:07;77908.38;;;-147.22;76.22
74329;BME280;62749;51.982;5.916;2024-02-28T13:07:37;77906.38;;;-147.22;75.98
74329;BME280;62749;51.982;5.916;2024-02-28T13:10:09;77904.34;;;-147.22;76.29
74329;BME280;62749;51.982;5.916;2024-02-28T13:12:39;77904.34;;;-147.22;75.77
74329;BME280;62749;51.982;5.916;2024-02-28T13:15:09;77900.31;;;-147.22;75.90